createdAt,value
2019-01-20T00:01:33.533Z,12.10
2019-01-20T00:04:02.862Z,10.18
2019-01-20T00:06:32.227Z,10.35
2019-01-20T00:09:01.585Z,11.35
2019-01-20T00:11:30.932Z,5.00
2019-01-20T00:14:00.263Z,6.22
2019-01-20T00:16:29.606Z,5.05
2019-01-20T00:18:58.931Z,5.67
2019-01-20T00:21:28.292Z,9.85
2019-01-20T00:23:57.647Z,6.85
2019-01-20T00:26:26.997Z,5.97
2019-01-20T00:28:56.362Z,7.65
2019-01-20T00:31:25.746Z,6.83
2019-01-20T00:33:55.079Z,7.90
2019-01-20T00:36:24.479Z,8.18
2019-01-20T00:38:53.815Z,11.33
2019-01-20T00:41:24.405Z,9.08
2019-01-20T00:43:53.898Z,8.50
2019-01-20T00:46:23.272Z,8.20
2019-01-20T00:48:52.591Z,7.80
2019-01-20T00:51:21.911Z,13.85
2019-01-20T00:53:51.275Z,10.00
2019-01-20T00:56:20.611Z,9.60
2019-01-20T00:58:49.962Z,9.78
2019-01-20T01:01:19.285Z,6.45
2019-01-20T01:03:48.634Z,10.58
2019-01-20T01:06:17.961Z,11.68
2019-01-20T01:08:47.311Z,6.90
2019-01-20T01:11:16.639Z,9.48
2019-01-20T01:13:46.001Z,7.70
2019-01-20T01:16:15.323Z,7.92
2019-01-20T01:18:44.715Z,5.83
2019-01-20T01:21:14.043Z,5.28
2019-01-20T01:23:43.411Z,7.80
2019-01-20T01:26:12.730Z,8.10
2019-01-20T01:28:42.076Z,8.30
2019-01-20T01:31:11.411Z,8.25
2019-01-20T01:33:40.762Z,8.33
2019-01-20T01:36:10.082Z,9.18
2019-01-20T01:38:39.434Z,8.93
2019-01-20T01:41:08.767Z,5.40
2019-01-20T01:43:38.125Z,5.62
2019-01-20T01:46:07.494Z,6.83
2019-01-20T01:48:36.859Z,6.10
2019-01-20T01:51:06.191Z,7.78
2019-01-20T01:53:35.543Z,10.03
2019-01-20T01:56:04.862Z,6.90
2019-01-20T01:58:34.255Z,7.10
2019-01-20T02:01:03.582Z,8.05
2019-01-20T02:03:32.902Z,9.55
2019-01-20T02:06:02.251Z,11.12
2019-01-20T02:08:31.571Z,8.53
2019-01-20T02:11:00.929Z,7.10
2019-01-20T02:13:30.247Z,5.80
2019-01-20T02:15:59.686Z,8.50
2019-01-20T02:18:29.018Z,10.93
2019-01-20T02:20:58.370Z,8.48
2019-01-20T02:23:27.712Z,9.00
2019-01-20T02:25:57.062Z,9.28
2019-01-20T02:28:26.394Z,9.43
2019-01-20T02:30:55.742Z,8.05
2019-01-20T02:33:25.071Z,8.00
2019-01-20T02:35:54.488Z,9.60
2019-01-20T02:38:23.823Z,10.60
2019-01-20T02:40:53.170Z,9.35
2019-01-20T02:43:22.503Z,9.73
2019-01-20T02:45:51.855Z,10.75
2019-01-20T02:48:21.214Z,9.78
2019-01-20T02:50:50.572Z,15.83
2019-01-20T02:53:19.891Z,9.08
2019-01-20T02:55:49.246Z,13.03
2019-01-20T02:58:18.575Z,10.45
2019-01-20T03:00:47.925Z,13.18
2019-01-20T03:03:17.338Z,12.25
2019-01-20T03:05:46.703Z,9.73
2019-01-20T03:08:16.055Z,11.30
2019-01-20T03:10:45.417Z,10.00
2019-01-20T03:13:14.738Z,7.85
2019-01-20T03:15:44.110Z,11.18
2019-01-20T03:18:13.467Z,7.12
2019-01-20T03:20:42.828Z,7.92
2019-01-20T03:23:12.173Z,16.48
2019-01-20T03:25:41.531Z,9.18
2019-01-20T03:28:10.907Z,12.75
2019-01-20T03:30:40.244Z,11.40
2019-01-20T03:33:09.597Z,19.32
2019-01-20T03:35:38.926Z,14.47
2019-01-20T03:38:08.270Z,15.75
2019-01-20T03:40:37.599Z,10.95
2019-01-20T03:43:06.977Z,15.03
2019-01-20T03:45:36.303Z,13.18
2019-01-20T03:48:06.235Z,11.12
2019-01-20T03:50:35.570Z,10.05
2019-01-20T03:53:04.972Z,14.73
2019-01-20T03:55:34.411Z,9.28
2019-01-20T03:58:03.867Z,9.78
2019-01-20T04:00:33.200Z,11.88
2019-01-20T04:03:03.724Z,19.25
2019-01-20T04:05:33.042Z,12.53
2019-01-20T04:08:02.460Z,18.12
2019-01-20T04:10:31.783Z,12.50
2019-01-20T04:13:01.131Z,8.43
2019-01-20T04:15:30.455Z,11.33
2019-01-20T04:17:59.734Z,11.10
2019-01-20T04:20:29.063Z,11.53
2019-01-20T04:22:58.446Z,14.07
2019-01-20T04:25:27.819Z,16.70
2019-01-20T04:27:57.176Z,13.00
2019-01-20T04:30:26.527Z,11.45
2019-01-20T04:32:55.859Z,20.95
2019-01-20T04:35:25.207Z,13.58
2019-01-20T04:37:54.538Z,16.02
2019-01-20T04:40:24.587Z,19.32
2019-01-20T04:42:53.923Z,16.32
2019-01-20T04:45:23.383Z,13.35
2019-01-20T04:47:52.712Z,12.53
2019-01-20T04:50:23.554Z,16.42
2019-01-20T04:52:53.294Z,16.15
2019-01-20T04:55:22.819Z,18.82
2019-01-20T04:57:56.043Z,16.75
2019-01-20T05:00:27.171Z,18.73
2019-01-20T05:02:56.545Z,18.07
2019-01-20T05:05:26.025Z,18.42
2019-01-20T05:07:55.382Z,15.80
2019-01-20T05:10:24.769Z,18.10
2019-01-20T05:12:54.131Z,23.67
2019-01-20T05:15:24.848Z,20.92
2019-01-20T05:17:54.207Z,15.95
2019-01-20T05:20:23.641Z,21.62
2019-01-20T05:22:53.030Z,24.50
2019-01-20T05:25:22.421Z,21.85
2019-01-20T05:27:51.830Z,17.85
2019-01-20T05:30:27.370Z,25.08
2019-01-20T05:32:56.738Z,26.62
2019-01-20T05:35:26.122Z,23.80
2019-01-20T05:37:55.496Z,21.97
2019-01-20T05:40:24.967Z,25.08
2019-01-20T05:42:54.358Z,22.48
2019-01-20T05:45:25.301Z,21.25
2019-01-20T05:47:55.539Z,19.35
2019-01-20T05:50:24.908Z,23.40
2019-01-20T05:52:54.307Z,21.75
2019-01-20T05:55:23.709Z,24.37
2019-01-20T05:57:53.108Z,21.17
2019-01-20T06:00:30.866Z,24.25
2019-01-20T06:03:00.254Z,20.75
2019-01-20T06:05:29.619Z,22.30
2019-01-20T06:07:59.008Z,23.70
2019-01-20T06:10:28.382Z,18.35
2019-01-20T06:12:57.754Z,18.90
2019-01-20T06:15:27.127Z,21.57
2019-01-20T06:17:56.522Z,22.90
2019-01-20T06:20:25.891Z,23.18
2019-01-20T06:22:55.342Z,23.50
2019-01-20T06:25:24.714Z,21.80
2019-01-20T06:27:54.086Z,28.77
2019-01-20T06:30:26.006Z,27.82
2019-01-20T06:32:55.414Z,19.07
2019-01-20T06:35:24.794Z,21.25
2019-01-20T06:37:54.245Z,29.12
2019-01-20T06:40:23.619Z,21.93
2019-01-20T06:42:53.006Z,20.25
2019-01-20T06:45:22.370Z,16.23
2019-01-20T06:47:51.755Z,16.42
2019-01-20T06:50:21.640Z,14.85
2019-01-20T06:52:51.051Z,20.12
2019-01-20T06:55:21.785Z,24.80
2019-01-20T06:57:51.305Z,22.25
2019-01-20T07:00:22.271Z,22.90
2019-01-20T07:02:51.639Z,19.37
2019-01-20T07:05:21.119Z,15.70
2019-01-20T07:07:50.855Z,19.12
2019-01-20T07:10:20.851Z,19.95
2019-01-20T07:12:50.235Z,20.08
2019-01-20T07:15:24.107Z,20.37
2019-01-20T07:17:53.695Z,22.93
2019-01-20T07:20:23.087Z,20.48
2019-01-20T07:22:52.479Z,23.77
2019-01-20T07:25:22.071Z,21.00
2019-01-20T07:27:51.430Z,18.10
2019-01-20T07:30:22.627Z,16.42
2019-01-20T07:32:51.992Z,26.25
2019-01-20T07:35:21.545Z,22.67
2019-01-20T07:37:51.158Z,15.95
2019-01-20T07:40:22.210Z,26.57
2019-01-20T07:42:51.595Z,23.02
2019-01-20T07:45:21.035Z,24.35
2019-01-20T07:47:50.391Z,19.48
2019-01-20T07:50:27.079Z,22.00
2019-01-20T07:52:56.461Z,29.95
2019-01-20T07:55:25.859Z,21.15
2019-01-20T07:57:55.242Z,23.20
2019-01-20T08:00:25.842Z,18.73
2019-01-20T08:02:55.286Z,19.62
2019-01-20T08:05:24.680Z,18.25
2019-01-20T08:07:54.031Z,14.85
2019-01-20T08:10:28.068Z,15.13
2019-01-20T08:12:57.450Z,14.75
2019-01-20T08:15:26.939Z,16.35
2019-01-20T08:17:56.300Z,15.10
2019-01-20T08:20:25.926Z,16.37
2019-01-20T08:22:55.327Z,14.40
2019-01-20T08:25:24.742Z,19.80
2019-01-20T08:27:54.110Z,16.02
2019-01-20T08:30:25.460Z,14.45
2019-01-20T08:32:55.107Z,15.28
2019-01-20T08:35:24.692Z,18.20
2019-01-20T08:37:54.063Z,17.50
2019-01-20T08:40:25.629Z,14.40
2019-01-20T08:42:54.943Z,14.50
2019-01-20T08:45:49.171Z,11.97
2019-01-20T08:48:20.263Z,14.63
2019-01-20T08:50:49.710Z,20.87
2019-01-20T08:53:19.062Z,22.20
2019-01-20T08:55:48.442Z,18.80
2019-01-20T08:58:17.812Z,17.07
2019-01-20T09:00:47.231Z,20.80
2019-01-20T09:03:16.591Z,15.70
2019-01-20T09:05:45.955Z,14.77
2019-01-20T09:08:15.339Z,17.77
2019-01-20T09:10:44.702Z,13.53
2019-01-20T09:13:14.090Z,16.47
2019-01-20T09:15:43.499Z,15.53
2019-01-20T09:18:12.931Z,21.77
2019-01-20T09:20:42.301Z,20.53
2019-01-20T09:23:11.707Z,16.90
2019-01-20T09:25:41.074Z,16.40
2019-01-20T09:28:10.463Z,14.57
2019-01-20T09:30:39.827Z,18.90
2019-01-20T09:33:09.245Z,18.70
2019-01-20T09:35:38.602Z,17.60
2019-01-20T09:38:07.995Z,17.10
2019-01-20T09:40:37.367Z,17.60
2019-01-20T09:43:06.754Z,15.60
2019-01-20T09:45:36.662Z,18.93
2019-01-20T09:48:06.319Z,15.40
2019-01-20T09:50:35.691Z,14.13
2019-01-20T09:53:05.077Z,19.23
2019-01-20T09:55:34.580Z,21.70
2019-01-20T09:58:03.968Z,21.30
2019-01-20T10:00:33.547Z,17.63
2019-01-20T10:03:02.959Z,20.20
2019-01-20T10:05:32.335Z,15.53
2019-01-20T10:08:01.727Z,18.40
2019-01-20T10:10:31.087Z,19.00
2019-01-20T10:13:00.455Z,19.17
2019-01-20T10:15:29.843Z,22.03
2019-01-20T10:17:59.216Z,18.17
2019-01-20T10:20:30.255Z,16.10
2019-01-20T10:22:59.654Z,19.60
2019-01-20T10:25:29.039Z,18.40
2019-01-20T10:27:58.410Z,21.83
2019-01-20T10:30:32.709Z,17.60
2019-01-20T10:33:03.427Z,21.23
2019-01-20T10:35:38.695Z,18.00
2019-01-20T10:38:09.346Z,20.23
2019-01-20T10:40:38.841Z,16.97
2019-01-20T10:43:08.211Z,19.67
2019-01-20T10:45:37.594Z,22.10
2019-01-20T10:48:07.227Z,18.27
2019-01-20T10:50:36.743Z,18.07
2019-01-20T10:53:06.567Z,17.80
2019-01-20T10:55:35.950Z,17.40
2019-01-20T10:58:05.871Z,17.90
2019-01-20T11:00:37.403Z,22.57
2019-01-20T11:03:07.470Z,17.30
2019-01-20T11:05:36.876Z,19.50
2019-01-20T11:08:06.338Z,13.77
2019-01-20T11:10:35.826Z,17.33
2019-01-20T11:13:05.599Z,15.63
2019-01-20T11:15:34.980Z,19.27
2019-01-20T11:18:05.419Z,21.57
2019-01-20T11:20:34.810Z,19.33
2019-01-20T11:23:04.194Z,21.10
2019-01-20T11:25:36.423Z,21.50
2019-01-20T11:28:05.787Z,19.60
2019-01-20T11:30:35.170Z,18.03
2019-01-20T11:33:04.638Z,22.97
2019-01-20T11:35:34.063Z,18.53
2019-01-20T11:38:03.397Z,19.20
2019-01-20T11:40:32.781Z,22.80
2019-01-20T11:43:02.138Z,15.20
2019-01-20T11:45:31.687Z,17.83
2019-01-20T11:48:01.055Z,17.77
2019-01-20T11:50:30.426Z,15.57
2019-01-20T11:52:59.810Z,15.13
2019-01-20T11:55:29.295Z,19.63
2019-01-20T11:57:58.698Z,20.60
2019-01-20T12:00:35.601Z,18.80
2019-01-20T12:03:05.747Z,18.00
2019-01-20T12:05:36.793Z,17.83
2019-01-20T12:08:06.591Z,16.53
2019-01-20T12:10:36.184Z,20.67
2019-01-20T12:13:07.603Z,18.97
2019-01-20T12:15:37.082Z,21.43
2019-01-20T12:18:06.807Z,19.40
2019-01-20T12:20:36.190Z,21.67
2019-01-20T12:23:05.687Z,16.20
2019-01-20T12:25:35.164Z,19.27
2019-01-20T12:28:04.557Z,19.03
2019-01-20T12:30:35.651Z,19.30
2019-01-20T12:33:05.437Z,27.77
2019-01-20T12:35:34.820Z,20.73
2019-01-20T12:38:04.355Z,17.87
2019-01-20T12:41:01.936Z,22.10
2019-01-20T12:43:31.387Z,17.57
2019-01-20T12:46:00.811Z,21.33
2019-01-20T12:48:30.203Z,19.50
2019-01-20T12:50:59.566Z,22.05
2019-01-20T12:53:28.955Z,18.20
2019-01-20T12:55:58.322Z,21.42
2019-01-20T12:58:27.710Z,19.55
2019-01-20T13:00:57.079Z,21.62
2019-01-20T13:03:26.466Z,18.07
2019-01-20T13:05:55.833Z,22.77
2019-01-20T13:08:25.223Z,22.80
2019-01-20T13:10:54.584Z,22.05
2019-01-20T13:13:23.970Z,19.23
2019-01-20T13:15:53.344Z,19.77
2019-01-20T13:18:22.735Z,22.77
2019-01-20T13:20:52.099Z,20.72
2019-01-20T13:23:21.516Z,17.50
2019-01-20T13:25:50.884Z,22.55
2019-01-20T13:28:20.270Z,18.17
2019-01-20T13:30:49.633Z,18.10
2019-01-20T13:33:18.995Z,28.70
2019-01-20T13:35:48.519Z,17.00
2019-01-20T13:38:22.675Z,17.87
2019-01-20T13:41:19.666Z,18.75
2019-01-20T13:43:49.059Z,19.90
2019-01-20T13:46:18.419Z,16.97
2019-01-20T13:48:47.807Z,16.50
2019-01-20T13:51:17.171Z,20.12
2019-01-20T13:53:46.539Z,20.17
2019-01-20T13:56:15.927Z,16.10
2019-01-20T13:58:45.292Z,18.82
2019-01-20T14:01:14.686Z,19.42
2019-01-20T14:03:44.046Z,18.80
2019-01-20T14:06:13.431Z,17.57
2019-01-20T14:08:44.388Z,20.35
2019-01-20T14:11:13.925Z,15.18
2019-01-20T14:13:43.310Z,22.17
2019-01-20T14:16:12.827Z,16.73
2019-01-20T14:18:45.494Z,19.42
2019-01-20T14:21:13.241Z,17.55
2019-01-20T14:23:42.660Z,19.07
2019-01-20T14:26:12.058Z,22.75
2019-01-20T14:28:41.422Z,23.25
2019-01-20T14:31:10.919Z,18.23
2019-01-20T14:33:40.287Z,17.35
2019-01-20T14:36:09.779Z,19.40
2019-01-20T14:38:39.144Z,19.17
2019-01-20T14:41:08.534Z,23.20
2019-01-20T14:43:37.978Z,21.20
2019-01-20T14:46:07.379Z,17.40
2019-01-20T14:48:36.799Z,27.13
2019-01-20T14:51:06.187Z,20.52
2019-01-20T14:53:35.555Z,21.97
2019-01-20T14:56:04.966Z,20.57
2019-01-20T14:58:34.326Z,19.45
2019-01-20T15:01:03.821Z,25.23
2019-01-20T15:03:33.187Z,23.07
2019-01-20T15:06:02.576Z,22.42
2019-01-20T15:08:31.949Z,19.20
2019-01-20T15:11:01.383Z,20.95
2019-01-20T15:13:30.745Z,22.02
2019-01-20T15:16:00.111Z,24.00
2019-01-20T15:18:29.494Z,23.45
2019-01-20T15:20:58.901Z,27.20
2019-01-20T15:23:28.310Z,22.93
2019-01-20T15:25:57.679Z,20.80
2019-01-20T15:28:27.071Z,23.10
2019-01-20T15:30:56.439Z,20.92
2019-01-20T15:33:25.823Z,25.95
2019-01-20T15:35:55.195Z,23.15
2019-01-20T15:38:24.595Z,19.37
2019-01-20T15:40:53.975Z,18.55
2019-01-20T15:43:23.394Z,21.15
2019-01-20T15:45:52.762Z,20.60
2019-01-20T15:48:22.151Z,13.05
2019-01-20T15:50:51.523Z,17.57
2019-01-20T15:53:20.915Z,14.78
2019-01-20T15:55:50.279Z,14.07
2019-01-20T15:58:19.669Z,12.85
2019-01-20T16:00:49.018Z,14.43
2019-01-20T16:03:18.399Z,14.28
2019-01-20T16:05:47.778Z,16.82
2019-01-20T16:08:17.159Z,11.43
2019-01-20T16:10:46.514Z,14.95
2019-01-20T16:13:17.674Z,15.48
2019-01-20T16:15:46.971Z,13.35
2019-01-20T16:18:16.351Z,12.58
2019-01-20T16:20:45.710Z,12.93
2019-01-20T16:23:15.163Z,14.35
2019-01-20T16:25:44.531Z,15.65
2019-01-20T16:28:13.919Z,14.13
2019-01-20T16:30:43.272Z,13.83
2019-01-20T16:33:12.671Z,19.00
2019-01-20T16:35:42.045Z,13.08
2019-01-20T16:38:12.223Z,19.02
2019-01-20T16:40:41.571Z,15.98
2019-01-20T16:43:10.934Z,15.83
2019-01-20T16:45:45.234Z,13.40
2019-01-20T16:48:14.656Z,15.53
2019-01-20T16:50:44.039Z,18.30
2019-01-20T16:53:13.406Z,20.20
2019-01-20T16:55:42.794Z,19.15
2019-01-20T16:58:12.355Z,16.20
2019-01-20T17:00:43.623Z,15.78
2019-01-20T17:03:13.004Z,13.03
2019-01-20T17:05:42.399Z,20.85
2019-01-20T17:08:12.010Z,14.90
2019-01-20T17:10:42.626Z,18.42
2019-01-20T17:13:12.415Z,20.72
2019-01-20T17:15:43.815Z,19.27
2019-01-20T17:18:14.830Z,20.12
2019-01-20T17:20:44.373Z,18.42
2019-01-20T17:23:13.730Z,20.12
2019-01-20T17:25:43.239Z,18.45
2019-01-20T17:28:12.626Z,18.98
2019-01-20T17:30:42.215Z,19.05
2019-01-20T17:33:12.589Z,16.35
2019-01-20T17:35:41.972Z,18.23
2019-01-20T17:38:11.334Z,19.87
2019-01-20T17:40:40.714Z,18.40
2019-01-20T17:43:10.102Z,18.07
2019-01-20T17:45:48.544Z,20.68
2019-01-20T17:48:15.143Z,15.85
2019-01-20T17:50:49.149Z,17.20
2019-01-20T17:53:19.515Z,16.75
2019-01-20T17:55:50.581Z,18.27
2019-01-20T17:58:21.569Z,16.07
2019-01-20T18:00:55.929Z,18.23
2019-01-20T18:03:28.568Z,19.40
2019-01-20T18:06:00.359Z,17.00
2019-01-20T18:08:32.557Z,21.42
2019-01-20T18:11:05.195Z,18.98
2019-01-20T18:13:36.264Z,17.15
2019-01-20T18:16:07.427Z,15.93
2019-01-20T18:18:41.527Z,12.25
2019-01-20T18:21:10.905Z,18.92
2019-01-20T18:23:40.291Z,13.48
2019-01-20T18:26:09.676Z,13.48
2019-01-20T18:28:39.059Z,19.48
2019-01-20T18:31:08.432Z,17.15
2019-01-20T18:33:37.818Z,16.95
2019-01-20T18:36:07.183Z,21.60
2019-01-20T18:38:36.583Z,25.50
2019-01-20T18:41:05.945Z,23.30
2019-01-20T18:43:35.350Z,21.60
2019-01-20T18:46:04.710Z,21.00
2019-01-20T18:48:35.423Z,23.92
2019-01-20T18:51:04.799Z,18.15
2019-01-20T18:53:34.198Z,17.45
2019-01-20T18:56:05.283Z,19.37
2019-01-20T18:58:34.738Z,16.60
2019-01-20T19:01:04.224Z,20.43
2019-01-20T19:03:33.614Z,16.25
2019-01-20T19:06:02.975Z,17.35
2019-01-20T19:08:32.371Z,19.90
2019-01-20T19:11:01.748Z,24.70
2019-01-20T19:13:31.310Z,24.57
2019-01-20T19:16:00.675Z,21.12
2019-01-20T19:18:30.076Z,20.80
2019-01-20T19:20:59.445Z,30.08
2019-01-20T19:23:28.854Z,24.45
2019-01-20T19:25:58.254Z,24.67
2019-01-20T19:28:27.642Z,23.75
2019-01-20T19:30:57.035Z,17.50
2019-01-20T19:33:26.423Z,19.67
2019-01-20T19:35:55.790Z,18.15
2019-01-20T19:38:25.154Z,23.42
2019-01-20T19:40:54.548Z,17.48
2019-01-20T19:43:23.907Z,17.30
2019-01-20T19:45:53.306Z,18.70
2019-01-20T19:48:22.668Z,18.30
2019-01-20T19:50:52.071Z,20.97
2019-01-20T19:53:21.452Z,19.85
2019-01-20T19:55:50.860Z,18.70
2019-01-20T19:58:20.219Z,24.35
2019-01-20T20:00:49.602Z,18.70
2019-01-20T20:03:18.971Z,21.75
2019-01-20T20:05:48.351Z,27.15
2019-01-20T20:08:17.718Z,22.45
2019-01-20T20:10:47.154Z,20.90
2019-01-20T20:13:16.471Z,26.20
2019-01-20T20:15:45.856Z,19.65
2019-01-20T20:18:15.226Z,21.82
2019-01-20T20:20:44.619Z,19.23
2019-01-20T20:23:13.974Z,22.50
2019-01-20T20:25:43.385Z,17.62
2019-01-20T20:28:12.782Z,19.32
2019-01-20T20:30:42.175Z,21.10
2019-01-20T20:33:11.557Z,20.72
2019-01-20T20:35:40.953Z,17.87
2019-01-20T20:38:10.314Z,18.52
2019-01-20T20:40:39.702Z,15.78
2019-01-20T20:43:09.062Z,21.33
2019-01-20T20:45:38.463Z,21.57
2019-01-20T20:48:07.824Z,20.35
2019-01-20T20:50:37.212Z,21.33
2019-01-20T20:53:06.570Z,22.40
2019-01-20T20:55:35.970Z,22.48
2019-01-20T20:58:05.612Z,17.65
2019-01-20T21:00:37.846Z,20.70
2019-01-20T21:03:21.729Z,21.97
2019-01-20T21:05:51.128Z,24.30
2019-01-20T21:08:20.490Z,19.50
2019-01-20T21:10:49.873Z,24.05
2019-01-20T21:13:19.254Z,30.12
2019-01-20T21:15:48.670Z,22.55
2019-01-20T21:18:18.050Z,31.37
2019-01-20T21:20:47.442Z,27.20
2019-01-20T21:23:16.810Z,31.35
2019-01-20T21:25:46.225Z,26.80
2019-01-20T21:28:15.583Z,28.25
2019-01-20T21:30:44.985Z,31.87
2019-01-20T21:33:14.351Z,29.85
2019-01-20T21:35:43.795Z,26.25
2019-01-20T21:38:13.135Z,25.08
2019-01-20T21:40:42.538Z,31.07
2019-01-20T21:43:11.905Z,26.33
2019-01-20T21:45:41.342Z,30.15
2019-01-20T21:48:10.708Z,29.10
2019-01-20T21:50:40.106Z,22.25
2019-01-20T21:53:09.493Z,25.72
2019-01-20T21:55:38.865Z,30.40
2019-01-20T21:58:08.261Z,29.60
2019-01-20T22:00:37.618Z,30.72
2019-01-20T22:03:07.107Z,30.95
2019-01-20T22:05:36.517Z,27.98
2019-01-20T22:08:05.848Z,24.95
2019-01-20T22:10:35.212Z,29.52
2019-01-20T22:13:04.598Z,20.23
2019-01-20T22:15:33.954Z,29.18
2019-01-20T22:18:03.326Z,25.35
2019-01-20T22:20:32.639Z,26.60
2019-01-20T22:23:02.027Z,26.35
2019-01-20T22:25:31.418Z,30.37
2019-01-20T22:28:00.878Z,27.45
2019-01-20T22:30:30.247Z,29.30
2019-01-20T22:32:59.630Z,26.07
2019-01-20T22:35:29.065Z,23.98
2019-01-20T22:37:58.446Z,24.55
2019-01-20T22:40:27.818Z,22.20
2019-01-20T22:42:57.210Z,26.37
2019-01-20T22:45:29.348Z,27.30
2019-01-20T22:47:58.746Z,23.67
2019-01-20T22:50:28.182Z,24.07
2019-01-20T22:52:57.600Z,25.92
2019-01-20T22:55:26.964Z,27.42
2019-01-20T22:57:56.352Z,28.23
2019-01-20T23:00:45.618Z,21.85
2019-01-20T23:03:15.023Z,24.80
2019-01-20T23:05:44.387Z,32.25
2019-01-20T23:08:13.791Z,25.25
2019-01-20T23:10:43.140Z,21.25
2019-01-20T23:13:12.563Z,25.00
2019-01-20T23:15:41.886Z,23.20
2019-01-20T23:18:11.399Z,36.88
2019-01-20T23:20:40.771Z,29.30
2019-01-20T23:23:10.143Z,23.57
2019-01-20T23:25:39.547Z,25.30
2019-01-20T23:28:08.915Z,25.77
2019-01-20T23:30:38.290Z,27.80
2019-01-20T23:33:07.654Z,24.45
2019-01-20T23:35:37.038Z,28.87
2019-01-20T23:38:06.446Z,28.62
2019-01-20T23:40:35.826Z,24.47
2019-01-20T23:43:05.799Z,27.02
2019-01-20T23:45:35.196Z,25.32
2019-01-20T23:48:04.655Z,20.70
2019-01-20T23:50:34.034Z,22.00
2019-01-20T23:53:03.402Z,24.35
2019-01-20T23:55:32.783Z,20.15
2019-01-20T23:58:02.152Z,24.75
